createdAt,value
2023-03-15T00:02:08.671Z,0.24
2023-03-15T00:07:11.456Z,0.21
2023-03-15T00:12:14.153Z,0.15
2023-03-15T00:17:17.257Z,0.08
2023-03-15T00:22:20.009Z,0.06
2023-03-15T00:27:22.833Z,0.08
2023-03-15T00:32:25.653Z,0.05
2023-03-15T00:37:28.454Z,0.07
2023-03-15T00:42:31.190Z,0.10
2023-03-15T00:47:33.952Z,0.11
2023-03-15T00:52:37.805Z,0.17
2023-03-15T00:57:42.295Z,0.24
2023-03-15T01:02:45.577Z,0.26
2023-03-15T01:07:49.279Z,0.29
2023-03-15T01:12:51.972Z,0.30
2023-03-15T01:17:56.866Z,0.30
2023-03-15T01:22:59.593Z,0.31
2023-03-15T01:28:02.344Z,0.30
2023-03-15T01:33:05.264Z,0.31
2023-03-15T01:38:08.042Z,0.31
2023-03-15T01:43:21.993Z,0.29
2023-03-15T01:49:00.645Z,0.30
2023-03-15T01:54:29.978Z,0.32
2023-03-15T01:59:43.221Z,0.30
2023-03-15T02:04:55.443Z,0.30
2023-03-15T02:10:11.140Z,0.34
2023-03-15T02:15:15.791Z,0.37
2023-03-15T02:20:27.317Z,0.37
2023-03-15T02:25:38.884Z,0.39
2023-03-15T02:30:42.796Z,0.33
2023-03-15T02:35:45.674Z,0.25
2023-03-15T02:40:49.219Z,0.16
2023-03-15T02:45:52.177Z,0.11
2023-03-15T02:50:54.956Z,0.10
2023-03-15T02:55:58.564Z,0.12
2023-03-15T03:01:01.298Z,0.13
2023-03-15T03:06:04.148Z,0.13
2023-03-15T03:11:07.903Z,0.09
2023-03-15T03:16:11.215Z,0.10
2023-03-15T03:21:14.932Z,0.14
2023-03-15T03:26:19.359Z,0.18
2023-03-15T03:31:25.210Z,0.24
2023-03-15T03:36:27.995Z,0.30
2023-03-15T03:41:30.689Z,0.36
2023-03-15T03:46:33.648Z,0.46
2023-03-15T03:51:37.882Z,0.54
2023-03-15T03:56:40.759Z,0.57
2023-03-15T04:01:43.789Z,0.60
2023-03-15T04:06:46.490Z,0.62
2023-03-15T04:11:49.190Z,0.55
2023-03-15T04:16:51.871Z,0.49
2023-03-15T04:21:54.588Z,0.44
2023-03-15T04:26:58.010Z,0.39
2023-03-15T04:32:02.049Z,0.31
2023-03-15T04:37:05.927Z,0.28
2023-03-15T04:42:09.037Z,0.23
2023-03-15T04:47:11.875Z,0.11
2023-03-15T04:52:14.624Z,-0.05
2023-03-15T04:57:17.375Z,-0.21
2023-03-15T05:02:20.137Z,-0.33
2023-03-15T05:07:22.945Z,-0.40
2023-03-15T05:12:25.681Z,-0.38
2023-03-15T05:17:28.401Z,-0.25
2023-03-15T05:22:31.182Z,-0.15
2023-03-15T05:27:34.704Z,-0.12
2023-03-15T05:32:39.873Z,-0.13
2023-03-15T05:37:42.795Z,-0.15
2023-03-15T05:42:45.660Z,-0.17
2023-03-15T05:47:48.456Z,-0.14
2023-03-15T05:52:52.180Z,-0.08
2023-03-15T05:57:55.083Z,0.01
2023-03-15T06:02:57.827Z,0.17
2023-03-15T06:08:00.672Z,0.27
2023-03-15T06:13:03.588Z,0.36
2023-03-15T06:18:06.490Z,0.43
2023-03-15T06:23:09.395Z,0.42
2023-03-15T06:28:12.092Z,0.43
2023-03-15T06:33:14.866Z,0.51
2023-03-15T06:38:17.635Z,0.52
2023-03-15T06:43:20.552Z,0.54
2023-03-15T06:48:23.293Z,0.60
2023-03-15T06:53:27.460Z,0.75
2023-03-15T06:58:31.025Z,0.98
2023-03-15T07:03:35.876Z,1.14
2023-03-15T07:08:39.326Z,1.22
2023-03-15T07:13:42.136Z,1.26
2023-03-15T07:18:44.874Z,1.27
2023-03-15T07:23:47.684Z,1.37
2023-03-15T07:28:50.800Z,1.45
2023-03-15T07:33:53.561Z,1.48
2023-03-15T07:38:56.599Z,1.61
2023-03-15T07:44:01.547Z,1.62
2023-03-15T07:49:18.165Z,1.66
2023-03-15T07:54:23.068Z,1.77
2023-03-15T07:59:25.870Z,1.88
2023-03-15T08:04:28.750Z,2.02
2023-03-15T08:09:34.661Z,2.24
2023-03-15T08:14:37.769Z,2.33
2023-03-15T08:19:41.063Z,2.44
2023-03-15T08:24:45.735Z,2.47
2023-03-15T08:29:48.709Z,2.35
2023-03-15T08:34:53.292Z,2.33
2023-03-15T08:39:58.031Z,2.32
2023-03-15T08:45:02.184Z,2.41
2023-03-15T08:50:08.275Z,2.66
2023-03-15T08:55:14.420Z,2.99
2023-03-15T09:00:20.902Z,3.24
2023-03-15T09:05:26.836Z,3.40
2023-03-15T09:10:29.576Z,3.46
2023-03-15T09:15:32.308Z,3.30
2023-03-15T09:20:35.139Z,3.12
2023-03-15T09:25:37.983Z,3.16
2023-03-15T09:30:42.409Z,3.36
2023-03-15T09:35:45.216Z,3.68
2023-03-15T09:40:49.030Z,3.86
2023-03-15T09:46:33.785Z,3.89
2023-03-15T09:51:43.306Z,3.69
2023-03-15T09:56:56.857Z,3.46
2023-03-15T10:02:08.926Z,3.41
2023-03-15T10:07:16.627Z,3.43
2023-03-15T10:12:41.340Z,3.51
2023-03-15T10:17:59.232Z,3.60
2023-03-15T10:23:20.546Z,3.81
2023-03-15T10:28:31.219Z,4.17
2023-03-15T10:33:37.549Z,4.37
2023-03-15T10:38:41.907Z,4.40
2023-03-15T10:43:58.126Z,4.45
2023-03-15T10:49:08.564Z,4.64
2023-03-15T10:54:25.035Z,4.81
2023-03-15T10:59:30.478Z,4.76
2023-03-15T11:04:34.458Z,4.51
2023-03-15T11:09:43.503Z,4.25
2023-03-15T11:14:48.807Z,4.12
2023-03-15T11:19:57.536Z,4.28
2023-03-15T11:25:00.330Z,4.31
2023-03-15T11:30:04.760Z,4.34
2023-03-15T11:35:17.358Z,4.54
2023-03-15T11:40:33.797Z,4.75
2023-03-15T11:45:46.288Z,4.82
2023-03-15T11:50:53.791Z,4.87
2023-03-15T11:55:58.633Z,4.92
2023-03-15T12:01:04.530Z,4.86
2023-03-15T12:06:10.461Z,4.71
2023-03-15T12:11:33.142Z,4.45
2023-03-15T12:16:45.037Z,4.20
2023-03-15T12:21:53.453Z,4.06
2023-03-15T12:27:05.776Z,3.94
2023-03-15T12:32:17.607Z,3.44
2023-03-15T12:37:22.442Z,3.13
2023-03-15T12:42:34.037Z,3.03
2023-03-15T12:47:51.811Z,3.10
2023-03-15T12:53:00.672Z,3.13
2023-03-15T12:58:04.838Z,3.00
2023-03-15T13:03:16.759Z,2.73
2023-03-15T13:08:37.093Z,2.33
2023-03-15T13:13:54.902Z,1.95
2023-03-15T13:19:18.936Z,2.04
2023-03-15T13:24:30.838Z,2.41
2023-03-15T13:29:33.727Z,2.78
2023-03-15T13:34:36.543Z,3.09
2023-03-15T13:39:39.348Z,3.26
2023-03-15T13:44:42.054Z,3.32
2023-03-15T13:49:44.755Z,3.24
2023-03-15T13:54:47.684Z,2.92
2023-03-15T13:59:55.601Z,2.63
2023-03-15T14:05:03.854Z,2.41
2023-03-15T14:10:18.486Z,2.17
2023-03-15T14:15:36.340Z,2.03
2023-03-15T14:20:43.785Z,2.09
2023-03-15T14:26:20.490Z,2.35
2023-03-15T14:31:34.696Z,2.71
2023-03-15T14:36:44.010Z,2.98
2023-03-15T14:41:46.671Z,3.17
2023-03-15T14:46:49.720Z,3.60
2023-03-15T14:52:05.248Z,4.46
2023-03-15T14:57:09.227Z,5.14
2023-03-15T15:02:20.879Z,5.64
2023-03-15T15:07:24.122Z,5.61
2023-03-15T15:12:26.785Z,5.32
2023-03-15T15:17:29.593Z,4.93
2023-03-15T15:22:32.568Z,4.35
2023-03-15T15:27:35.308Z,3.83
2023-03-15T15:32:38.100Z,3.35
2023-03-15T15:37:43.610Z,2.69
2023-03-15T15:42:47.502Z,2.11
2023-03-15T15:47:51.136Z,1.90
2023-03-15T15:52:54.183Z,2.35
2023-03-15T15:57:57.395Z,2.62
2023-03-15T16:03:00.140Z,2.64
2023-03-15T16:08:05.048Z,2.31
2023-03-15T16:13:11.297Z,2.42
2023-03-15T16:18:14.308Z,2.91
2023-03-15T16:23:24.508Z,3.22
2023-03-15T16:28:28.208Z,3.10
2023-03-15T16:33:34.665Z,2.76
2023-03-15T16:38:37.386Z,2.25
2023-03-15T16:43:40.088Z,1.78
2023-03-15T16:48:43.454Z,1.35
2023-03-15T16:53:46.194Z,0.99
2023-03-15T16:58:52.072Z,0.71
2023-03-15T17:03:55.778Z,0.46
2023-03-15T17:09:03.343Z,0.22
2023-03-15T17:14:10.857Z,0.05
2023-03-15T17:19:15.183Z,-0.11
2023-03-15T17:24:18.167Z,-0.28
2023-03-15T17:29:21.303Z,-0.47
2023-03-15T17:34:23.964Z,-0.63
2023-03-15T17:39:27.505Z,-0.76
2023-03-15T17:44:30.194Z,-0.90
2023-03-15T17:49:32.853Z,-1.05
2023-03-15T17:54:35.864Z,-1.15
2023-03-15T17:59:38.930Z,-1.26
2023-03-15T18:04:42.039Z,-1.38
2023-03-15T18:09:44.676Z,-1.46
2023-03-15T18:14:47.434Z,-1.50
2023-03-15T18:19:50.240Z,-1.54
2023-03-15T18:24:53.039Z,-1.63
2023-03-15T18:29:55.857Z,-1.70
2023-03-15T18:34:58.518Z,-1.72
2023-03-15T18:40:01.335Z,-1.76
2023-03-15T18:45:04.832Z,-1.80
2023-03-15T18:50:10.993Z,-1.82
2023-03-15T18:55:16.418Z,-1.81
2023-03-15T19:00:26.782Z,-1.84
2023-03-15T19:05:34.204Z,-1.86
2023-03-15T19:10:36.928Z,-1.84
2023-03-15T19:15:39.887Z,-1.78
2023-03-15T19:20:42.685Z,-1.78
2023-03-15T19:25:46.730Z,-1.80
2023-03-15T19:30:49.738Z,-1.84
2023-03-15T19:35:53.073Z,-1.91
2023-03-15T19:40:58.562Z,-2.02
2023-03-15T19:46:06.617Z,-2.09
2023-03-15T19:51:09.396Z,-2.16
2023-03-15T19:56:12.112Z,-2.22
2023-03-15T20:01:16.217Z,-2.30
2023-03-15T20:06:19.392Z,-2.34
2023-03-15T20:11:25.343Z,-2.38
2023-03-15T20:16:28.396Z,-2.41
2023-03-15T20:21:31.150Z,-2.44
2023-03-15T20:26:33.834Z,-2.48
2023-03-15T20:31:36.680Z,-2.59
2023-03-15T20:36:39.658Z,-2.70
2023-03-15T20:41:42.352Z,-2.76
2023-03-15T20:46:45.444Z,-2.76
2023-03-15T20:51:48.371Z,-2.76
2023-03-15T20:56:51.783Z,-2.82
2023-03-15T21:01:54.501Z,-2.88
2023-03-15T21:07:04.005Z,-2.97
2023-03-15T21:12:08.065Z,-3.04
2023-03-15T21:17:11.279Z,-3.10
2023-03-15T21:22:13.884Z,-3.18
2023-03-15T21:27:16.871Z,-3.28
2023-03-15T21:32:20.062Z,-3.43
2023-03-15T21:37:22.775Z,-3.59
2023-03-15T21:42:25.681Z,-3.69
2023-03-15T21:47:28.391Z,-3.75
2023-03-15T21:52:31.306Z,-3.85
2023-03-15T21:57:34.194Z,-3.92
2023-03-15T22:02:37.073Z,-3.95
2023-03-15T22:07:41.095Z,-3.94
2023-03-15T22:12:43.863Z,-3.97
2023-03-15T22:17:46.640Z,-4.01
2023-03-15T22:22:49.423Z,-4.03
2023-03-15T22:27:52.326Z,-4.03
2023-03-15T22:32:55.127Z,-4.06
2023-03-15T22:37:57.972Z,-4.09
2023-03-15T22:43:00.851Z,-4.09
2023-03-15T22:48:03.829Z,-4.10
2023-03-15T22:53:06.646Z,-4.15
2023-03-15T22:58:09.346Z,-4.22
2023-03-15T23:03:12.377Z,-4.24
2023-03-15T23:08:15.050Z,-4.26
2023-03-15T23:13:17.753Z,-4.29
2023-03-15T23:18:22.287Z,-4.36
2023-03-15T23:23:27.248Z,-4.39
2023-03-15T23:28:29.939Z,-4.38
2023-03-15T23:33:35.385Z,-4.40
2023-03-15T23:38:38.213Z,-4.48
2023-03-15T23:43:41.656Z,-4.54
2023-03-15T23:48:44.535Z,-4.55
2023-03-15T23:53:47.215Z,-4.54
2023-03-15T23:58:50.107Z,-4.57
